Terminal Aerodrome Forecast
Issued by NWS

Home | Current Version | Previous Version | Text Only | Print | Product List | Glossary Off
Versions: 1 2 3 4 5 6 7 8 9 10 11 12 13 14 15 16 17 18 19 20 21 22 23 24

000
FTUS43 KABR 271401 AAB
TAFPIR
TAF AMD
KPIR 271401Z 2714/2812 14012KT P6SM OVC005
     FM271430 13015KT P6SM SCT008
     FM271700 14020G30KT P6SM SCT250
     FM280700 30024G35KT P6SM SCT250=

USA.gov is the U.S. government's official web portal to all federal, state and local government web resources and services.